Terminal Aerodrome Forecast
Issued by NWS

Home | Current Version | Previous Version | Text Only | Print | Product List | Glossary On
Versions: 1 2 3 4 5 6 7 8 9 10 11 12 13 14 15 16
000
FTUS46 KMFR 300549
TAFLMT
TAF
KLMT 300549Z 3006/3106 VRB03KT P6SM SCT080
     FM301200 24006KT P6SM SCT040
     FM301800 24011G20KT P6SM BKN040
     FM302200 29010KT P6SM BKN045=

USA.gov is the U.S. government's official web portal to all federal, state and local government web resources and services.